sensor_id;sensor_type;location;lat;lon;timestamp;P1;durP1;ratioP1;P2;durP2;ratioP2
28772;SDS011;15925;51.222;5.678;2024-01-10T00:00:16;5.15;;;1.85;;
28772;SDS011;15925;51.222;5.678;2024-01-10T00:02:42;13.07;;;2.97;;
28772;SDS011;15925;51.222;5.678;2024-01-10T00:05:08;12.05;;;3.10;;
28772;SDS011;15925;51.222;5.678;2024-01-10T00:07:34;8.35;;;2.42;;
28772;SDS011;15925;51.222;5.678;2024-01-10T00:10:01;2.45;;;1.75;;
28772;SDS011;15925;51.222;5.678;2024-01-10T00:12:28;9.48;;;3.55;;
28772;SDS011;15925;51.222;5.678;2024-01-10T00:15:00;3.97;;;2.33;;
28772;SDS011;15925;51.222;5.678;2024-01-10T00:17:26;7.82;;;3.33;;
28772;SDS011;15925;51.222;5.678;2024-01-10T00:19:52;5.80;;;2.30;;
28772;SDS011;15925;51.222;5.678;2024-01-10T00:22:17;8.93;;;2.13;;
28772;SDS011;15925;51.222;5.678;2024-01-10T00:24:43;7.78;;;4.00;;
28772;SDS011;15925;51.222;5.678;2024-01-10T00:27:09;7.03;;;2.78;;
28772;SDS011;15925;51.222;5.678;2024-01-10T00:29:35;4.72;;;3.83;;
28772;SDS011;15925;51.222;5.678;2024-01-10T00:32:01;3.33;;;1.88;;
28772;SDS011;15925;51.222;5.678;2024-01-10T00:34:26;9.68;;;4.07;;
28772;SDS011;15925;51.222;5.678;2024-01-10T00:36:52;8.45;;;2.30;;
28772;SDS011;15925;51.222;5.678;2024-01-10T00:39:18;4.68;;;1.83;;
28772;SDS011;15925;51.222;5.678;2024-01-10T00:41:44;3.28;;;1.80;;
28772;SDS011;15925;51.222;5.678;2024-01-10T00:44:09;3.92;;;2.33;;
28772;SDS011;15925;51.222;5.678;2024-01-10T00:46:35;7.43;;;1.92;;
28772;SDS011;15925;51.222;5.678;2024-01-10T00:49:01;7.70;;;3.50;;
28772;SDS011;15925;51.222;5.678;2024-01-10T00:51:26;10.73;;;2.83;;
28772;SDS011;15925;51.222;5.678;2024-01-10T00:53:52;10.70;;;4.22;;
28772;SDS011;15925;51.222;5.678;2024-01-10T00:56:18;5.35;;;2.97;;
28772;SDS011;15925;51.222;5.678;2024-01-10T00:58:44;3.63;;;2.45;;
28772;SDS011;15925;51.222;5.678;2024-01-10T01:01:09;7.72;;;2.72;;
28772;SDS011;15925;51.222;5.678;2024-01-10T01:03:35;6.05;;;2.60;;
28772;SDS011;15925;51.222;5.678;2024-01-10T01:06:01;11.82;;;4.85;;
28772;SDS011;15925;51.222;5.678;2024-01-10T01:08:27;9.63;;;3.30;;
28772;SDS011;15925;51.222;5.678;2024-01-10T01:10:52;3.90;;;2.08;;
28772;SDS011;15925;51.222;5.678;2024-01-10T01:13:18;23.73;;;2.88;;
28772;SDS011;15925;51.222;5.678;2024-01-10T01:15:44;11.20;;;2.17;;
28772;SDS011;15925;51.222;5.678;2024-01-10T01:18:10;3.33;;;2.03;;
28772;SDS011;15925;51.222;5.678;2024-01-10T01:20:37;6.25;;;1.75;;
28772;SDS011;15925;51.222;5.678;2024-01-10T01:23:03;4.95;;;2.65;;
28772;SDS011;15925;51.222;5.678;2024-01-10T01:25:29;1.80;;;1.65;;
28772;SDS011;15925;51.222;5.678;2024-01-10T01:27:55;5.32;;;2.35;;
28772;SDS011;15925;51.222;5.678;2024-01-10T01:30:20;5.93;;;2.55;;
28772;SDS011;15925;51.222;5.678;2024-01-10T01:32:47;9.48;;;2.50;;
28772;SDS011;15925;51.222;5.678;2024-01-10T01:35:12;9.02;;;2.80;;
28772;SDS011;15925;51.222;5.678;2024-01-10T01:37:38;5.28;;;2.83;;
28772;SDS011;15925;51.222;5.678;2024-01-10T01:40:04;2.35;;;1.50;;
28772;SDS011;15925;51.222;5.678;2024-01-10T01:42:31;5.50;;;2.47;;
28772;SDS011;15925;51.222;5.678;2024-01-10T01:44:57;7.88;;;3.80;;
28772;SDS011;15925;51.222;5.678;2024-01-10T01:47:23;4.45;;;1.40;;
28772;SDS011;15925;51.222;5.678;2024-01-10T01:49:48;3.75;;;3.45;;
28772;SDS011;15925;51.222;5.678;2024-01-10T01:52:14;6.20;;;3.90;;
28772;SDS011;15925;51.222;5.678;2024-01-10T01:54:40;9.90;;;3.70;;
28772;SDS011;15925;51.222;5.678;2024-01-10T01:57:06;11.48;;;3.78;;
28772;SDS011;15925;51.222;5.678;2024-01-10T01:59:32;8.35;;;2.35;;
28772;SDS011;15925;51.222;5.678;2024-01-10T02:01:58;4.60;;;1.77;;
28772;SDS011;15925;51.222;5.678;2024-01-10T02:04:28;6.80;;;2.92;;
28772;SDS011;15925;51.222;5.678;2024-01-10T02:06:55;4.18;;;2.97;;
28772;SDS011;15925;51.222;5.678;2024-01-10T02:09:21;2.78;;;1.63;;
28772;SDS011;15925;51.222;5.678;2024-01-10T02:11:47;3.90;;;2.40;;
28772;SDS011;15925;51.222;5.678;2024-01-10T02:14:13;9.65;;;2.17;;
28772;SDS011;15925;51.222;5.678;2024-01-10T02:19:21;5.47;;;2.35;;
28772;SDS011;15925;51.222;5.678;2024-01-10T02:21:48;4.00;;;1.77;;
28772;SDS011;15925;51.222;5.678;2024-01-10T02:24:14;3.42;;;1.90;;
28772;SDS011;15925;51.222;5.678;2024-01-10T02:26:40;2.17;;;1.85;;
28772;SDS011;15925;51.222;5.678;2024-01-10T02:29:05;3.85;;;1.90;;
28772;SDS011;15925;51.222;5.678;2024-01-10T02:31:31;9.60;;;4.00;;
28772;SDS011;15925;51.222;5.678;2024-01-10T02:33:57;5.57;;;1.95;;
28772;SDS011;15925;51.222;5.678;2024-01-10T02:36:23;14.93;;;2.10;;
28772;SDS011;15925;51.222;5.678;2024-01-10T02:38:48;19.33;;;3.83;;
28772;SDS011;15925;51.222;5.678;2024-01-10T02:41:15;10.25;;;2.67;;
28772;SDS011;15925;51.222;5.678;2024-01-10T02:43:41;6.40;;;2.00;;
28772;SDS011;15925;51.222;5.678;2024-01-10T02:46:07;5.15;;;2.70;;
28772;SDS011;15925;51.222;5.678;2024-01-10T02:48:32;1.58;;;1.20;;
28772;SDS011;15925;51.222;5.678;2024-01-10T02:50:58;11.43;;;3.33;;
28772;SDS011;15925;51.222;5.678;2024-01-10T02:53:24;2.97;;;2.22;;
28772;SDS011;15925;51.222;5.678;2024-01-10T02:55:50;4.82;;;2.05;;
28772;SDS011;15925;51.222;5.678;2024-01-10T02:58:15;3.05;;;2.35;;
28772;SDS011;15925;51.222;5.678;2024-01-10T03:00:41;2.53;;;2.13;;
28772;SDS011;15925;51.222;5.678;2024-01-10T03:03:07;5.18;;;2.88;;
28772;SDS011;15925;51.222;5.678;2024-01-10T03:05:33;30.70;;;3.10;;
28772;SDS011;15925;51.222;5.678;2024-01-10T03:07:58;3.75;;;2.22;;
28772;SDS011;15925;51.222;5.678;2024-01-10T03:10:26;2.45;;;1.23;;
28772;SDS011;15925;51.222;5.678;2024-01-10T03:12:51;8.73;;;3.00;;
28772;SDS011;15925;51.222;5.678;2024-01-10T03:15:17;4.50;;;2.17;;
28772;SDS011;15925;51.222;5.678;2024-01-10T03:17:43;6.65;;;2.42;;
28772;SDS011;15925;51.222;5.678;2024-01-10T03:20:09;4.03;;;1.75;;
28772;SDS011;15925;51.222;5.678;2024-01-10T03:22:35;4.03;;;2.50;;
28772;SDS011;15925;51.222;5.678;2024-01-10T03:25:02;16.80;;;1.75;;
28772;SDS011;15925;51.222;5.678;2024-01-10T03:27:28;2.95;;;1.77;;
28772;SDS011;15925;51.222;5.678;2024-01-10T03:29:54;7.68;;;2.53;;
28772;SDS011;15925;51.222;5.678;2024-01-10T03:32:19;9.55;;;3.95;;
28772;SDS011;15925;51.222;5.678;2024-01-10T03:34:45;4.63;;;2.40;;
28772;SDS011;15925;51.222;5.678;2024-01-10T03:37:11;5.50;;;3.33;;
28772;SDS011;15925;51.222;5.678;2024-01-10T03:39:37;10.63;;;2.45;;
28772;SDS011;15925;51.222;5.678;2024-01-10T03:42:02;2.03;;;1.63;;
28772;SDS011;15925;51.222;5.678;2024-01-10T03:44:28;10.57;;;3.80;;
28772;SDS011;15925;51.222;5.678;2024-01-10T03:46:54;3.72;;;1.83;;
28772;SDS011;15925;51.222;5.678;2024-01-10T03:49:20;2.95;;;1.65;;
28772;SDS011;15925;51.222;5.678;2024-01-10T03:51:45;6.03;;;2.13;;
28772;SDS011;15925;51.222;5.678;2024-01-10T03:54:11;3.20;;;1.88;;
28772;SDS011;15925;51.222;5.678;2024-01-10T03:56:37;3.58;;;2.67;;
28772;SDS011;15925;51.222;5.678;2024-01-10T03:59:02;6.13;;;1.92;;
28772;SDS011;15925;51.222;5.678;2024-01-10T04:01:28;8.68;;;3.13;;
28772;SDS011;15925;51.222;5.678;2024-01-10T04:03:54;6.82;;;1.67;;
28772;SDS011;15925;51.222;5.678;2024-01-10T04:06:20;2.80;;;2.35;;
28772;SDS011;15925;51.222;5.678;2024-01-10T04:08:45;4.40;;;3.13;;
28772;SDS011;15925;51.222;5.678;2024-01-10T04:11:11;14.95;;;2.25;;
28772;SDS011;15925;51.222;5.678;2024-01-10T04:13:37;3.05;;;2.25;;
28772;SDS011;15925;51.222;5.678;2024-01-10T04:16:02;8.20;;;2.10;;
28772;SDS011;15925;51.222;5.678;2024-01-10T04:18:28;5.10;;;2.17;;
28772;SDS011;15925;51.222;5.678;2024-01-10T04:20:54;7.75;;;1.73;;
28772;SDS011;15925;51.222;5.678;2024-01-10T04:23:20;2.97;;;2.00;;
28772;SDS011;15925;51.222;5.678;2024-01-10T04:25:46;5.00;;;2.70;;
28772;SDS011;15925;51.222;5.678;2024-01-10T04:28:11;13.52;;;1.85;;
28772;SDS011;15925;51.222;5.678;2024-01-10T04:30:37;8.18;;;1.60;;
28772;SDS011;15925;51.222;5.678;2024-01-10T04:35:29;6.90;;;3.05;;
28772;SDS011;15925;51.222;5.678;2024-01-10T04:37:55;4.10;;;1.88;;
28772;SDS011;15925;51.222;5.678;2024-01-10T04:40:21;19.77;;;2.05;;
28772;SDS011;15925;51.222;5.678;2024-01-10T04:42:47;7.85;;;2.17;;
28772;SDS011;15925;51.222;5.678;2024-01-10T04:45:13;1.80;;;1.45;;
28772;SDS011;15925;51.222;5.678;2024-01-10T04:47:39;4.57;;;2.15;;
28772;SDS011;15925;51.222;5.678;2024-01-10T04:50:04;8.75;;;2.65;;
28772;SDS011;15925;51.222;5.678;2024-01-10T04:52:30;3.85;;;2.08;;
28772;SDS011;15925;51.222;5.678;2024-01-10T04:54:56;8.48;;;2.25;;
28772;SDS011;15925;51.222;5.678;2024-01-10T04:57:22;1.60;;;1.48;;
28772;SDS011;15925;51.222;5.678;2024-01-10T04:59:47;2.72;;;1.83;;
28772;SDS011;15925;51.222;5.678;2024-01-10T05:02:14;4.60;;;1.80;;
28772;SDS011;15925;51.222;5.678;2024-01-10T05:04:39;5.45;;;2.17;;
28772;SDS011;15925;51.222;5.678;2024-01-10T05:07:05;4.63;;;2.85;;
28772;SDS011;15925;51.222;5.678;2024-01-10T05:09:31;7.18;;;2.97;;
28772;SDS011;15925;51.222;5.678;2024-01-10T05:11:57;6.18;;;2.10;;
28772;SDS011;15925;51.222;5.678;2024-01-10T05:14:23;3.10;;;2.42;;
28772;SDS011;15925;51.222;5.678;2024-01-10T05:16:48;9.48;;;4.45;;
28772;SDS011;15925;51.222;5.678;2024-01-10T05:19:14;6.82;;;3.00;;
28772;SDS011;15925;51.222;5.678;2024-01-10T05:21:40;4.22;;;1.33;;
28772;SDS011;15925;51.222;5.678;2024-01-10T05:24:06;8.07;;;2.40;;
28772;SDS011;15925;51.222;5.678;2024-01-10T05:26:31;2.83;;;1.45;;
28772;SDS011;15925;51.222;5.678;2024-01-10T05:28:57;4.32;;;2.13;;
28772;SDS011;15925;51.222;5.678;2024-01-10T05:31:23;4.40;;;2.17;;
28772;SDS011;15925;51.222;5.678;2024-01-10T05:33:49;6.57;;;1.83;;
28772;SDS011;15925;51.222;5.678;2024-01-10T05:36:14;3.58;;;1.75;;
28772;SDS011;15925;51.222;5.678;2024-01-10T05:38:40;5.90;;;2.60;;
28772;SDS011;15925;51.222;5.678;2024-01-10T05:41:06;1.00;;;1.00;;
28772;SDS011;15925;51.222;5.678;2024-01-10T05:43:32;5.15;;;2.25;;
28772;SDS011;15925;51.222;5.678;2024-01-10T05:45:58;14.00;;;1.98;;
28772;SDS011;15925;51.222;5.678;2024-01-10T05:48:24;7.72;;;2.63;;
28772;SDS011;15925;51.222;5.678;2024-01-10T05:50:50;9.75;;;2.45;;
28772;SDS011;15925;51.222;5.678;2024-01-10T05:53:16;5.63;;;2.30;;
28772;SDS011;15925;51.222;5.678;2024-01-10T05:55:42;6.25;;;2.65;;
28772;SDS011;15925;51.222;5.678;2024-01-10T05:58:09;10.23;;;3.10;;
28772;SDS011;15925;51.222;5.678;2024-01-10T06:00:35;8.27;;;2.97;;
28772;SDS011;15925;51.222;5.678;2024-01-10T06:03:01;7.10;;;3.17;;
28772;SDS011;15925;51.222;5.678;2024-01-10T06:05:27;4.47;;;2.10;;
28772;SDS011;15925;51.222;5.678;2024-01-10T06:07:53;7.60;;;3.17;;
28772;SDS011;15925;51.222;5.678;2024-01-10T06:10:18;5.35;;;2.30;;
28772;SDS011;15925;51.222;5.678;2024-01-10T06:12:44;4.18;;;3.28;;
28772;SDS011;15925;51.222;5.678;2024-01-10T06:15:10;5.32;;;2.28;;
28772;SDS011;15925;51.222;5.678;2024-01-10T06:17:36;13.95;;;2.72;;
28772;SDS011;15925;51.222;5.678;2024-01-10T06:20:03;4.60;;;1.55;;
28772;SDS011;15925;51.222;5.678;2024-01-10T06:22:29;5.57;;;2.85;;
28772;SDS011;15925;51.222;5.678;2024-01-10T06:24:55;5.05;;;2.80;;
28772;SDS011;15925;51.222;5.678;2024-01-10T06:27:21;3.40;;;2.92;;
28772;SDS011;15925;51.222;5.678;2024-01-10T06:29:46;1.52;;;1.27;;
28772;SDS011;15925;51.222;5.678;2024-01-10T06:32:12;5.43;;;3.03;;
28772;SDS011;15925;51.222;5.678;2024-01-10T06:34:39;5.82;;;2.92;;
28772;SDS011;15925;51.222;5.678;2024-01-10T06:37:05;6.38;;;2.42;;
28772;SDS011;15925;51.222;5.678;2024-01-10T06:39:32;4.13;;;2.70;;
28772;SDS011;15925;51.222;5.678;2024-01-10T06:41:58;5.15;;;2.28;;
28772;SDS011;15925;51.222;5.678;2024-01-10T06:44:24;3.75;;;2.28;;
28772;SDS011;15925;51.222;5.678;2024-01-10T06:46:50;4.55;;;1.75;;
28772;SDS011;15925;51.222;5.678;2024-01-10T06:51:42;3.25;;;1.85;;
28772;SDS011;15925;51.222;5.678;2024-01-10T06:54:08;14.43;;;3.25;;
28772;SDS011;15925;51.222;5.678;2024-01-10T06:56:33;4.13;;;2.17;;
28772;SDS011;15925;51.222;5.678;2024-01-10T07:01:26;8.45;;;3.55;;
28772;SDS011;15925;51.222;5.678;2024-01-10T07:03:53;8.15;;;3.15;;
28772;SDS011;15925;51.222;5.678;2024-01-10T07:06:22;6.32;;;2.58;;
28772;SDS011;15925;51.222;5.678;2024-01-10T07:08:49;7.28;;;3.03;;
28772;SDS011;15925;51.222;5.678;2024-01-10T07:11:18;1.98;;;1.58;;
28772;SDS011;15925;51.222;5.678;2024-01-10T07:13:47;5.10;;;2.17;;
28772;SDS011;15925;51.222;5.678;2024-01-10T07:16:13;5.22;;;2.42;;
28772;SDS011;15925;51.222;5.678;2024-01-10T07:18:42;6.07;;;2.67;;
28772;SDS011;15925;51.222;5.678;2024-01-10T07:21:09;5.57;;;2.28;;
28772;SDS011;15925;51.222;5.678;2024-01-10T07:23:35;2.90;;;2.63;;
28772;SDS011;15925;51.222;5.678;2024-01-10T07:26:03;16.00;;;2.72;;
28772;SDS011;15925;51.222;5.678;2024-01-10T07:28:29;6.13;;;2.85;;
28772;SDS011;15925;51.222;5.678;2024-01-10T07:30:55;9.30;;;2.28;;
28772;SDS011;15925;51.222;5.678;2024-01-10T07:33:21;4.78;;;2.15;;
28772;SDS011;15925;51.222;5.678;2024-01-10T07:35:47;11.07;;;3.20;;
28772;SDS011;15925;51.222;5.678;2024-01-10T07:38:12;4.32;;;2.60;;
28772;SDS011;15925;51.222;5.678;2024-01-10T07:40:38;5.47;;;2.03;;
28772;SDS011;15925;51.222;5.678;2024-01-10T07:43:04;5.63;;;2.25;;
28772;SDS011;15925;51.222;5.678;2024-01-10T07:45:29;4.13;;;2.05;;
28772;SDS011;15925;51.222;5.678;2024-01-10T07:47:55;7.22;;;2.90;;
28772;SDS011;15925;51.222;5.678;2024-01-10T07:50:21;5.40;;;3.83;;
28772;SDS011;15925;51.222;5.678;2024-01-10T07:52:52;5.38;;;2.72;;
28772;SDS011;15925;51.222;5.678;2024-01-10T07:55:17;5.65;;;3.25;;
28772;SDS011;15925;51.222;5.678;2024-01-10T07:57:43;12.43;;;3.88;;
28772;SDS011;15925;51.222;5.678;2024-01-10T08:00:09;13.55;;;3.78;;
28772;SDS011;15925;51.222;5.678;2024-01-10T08:02:38;3.20;;;2.70;;
28772;SDS011;15925;51.222;5.678;2024-01-10T08:05:05;11.38;;;2.80;;
28772;SDS011;15925;51.222;5.678;2024-01-10T08:07:37;8.23;;;2.72;;
28772;SDS011;15925;51.222;5.678;2024-01-10T08:10:06;8.55;;;4.18;;
28772;SDS011;15925;51.222;5.678;2024-01-10T08:12:34;8.52;;;3.83;;
28772;SDS011;15925;51.222;5.678;2024-01-10T08:15:00;16.92;;;3.13;;
28772;SDS011;15925;51.222;5.678;2024-01-10T08:17:27;4.68;;;2.10;;
28772;SDS011;15925;51.222;5.678;2024-01-10T08:19:52;38.92;;;2.47;;
28772;SDS011;15925;51.222;5.678;2024-01-10T08:24:45;5.68;;;3.30;;
28772;SDS011;15925;51.222;5.678;2024-01-10T08:27:11;3.90;;;2.50;;
28772;SDS011;15925;51.222;5.678;2024-01-10T08:29:37;10.10;;;5.32;;
28772;SDS011;15925;51.222;5.678;2024-01-10T08:32:03;5.47;;;3.55;;
28772;SDS011;15925;51.222;5.678;2024-01-10T08:34:29;9.80;;;4.28;;
28772;SDS011;15925;51.222;5.678;2024-01-10T08:36:55;10.30;;;3.05;;
28772;SDS011;15925;51.222;5.678;2024-01-10T08:39:21;5.18;;;2.00;;
28772;SDS011;15925;51.222;5.678;2024-01-10T08:41:51;18.10;;;5.13;;
28772;SDS011;15925;51.222;5.678;2024-01-10T08:44:18;5.15;;;2.28;;
28772;SDS011;15925;51.222;5.678;2024-01-10T08:46:43;5.53;;;2.83;;
28772;SDS011;15925;51.222;5.678;2024-01-10T08:49:09;5.45;;;4.10;;
28772;SDS011;15925;51.222;5.678;2024-01-10T08:51:35;11.50;;;3.08;;
28772;SDS011;15925;51.222;5.678;2024-01-10T08:54:01;7.32;;;3.72;;
28772;SDS011;15925;51.222;5.678;2024-01-10T08:56:26;22.73;;;3.72;;
28772;SDS011;15925;51.222;5.678;2024-01-10T08:58:52;10.85;;;3.80;;
28772;SDS011;15925;51.222;5.678;2024-01-10T09:01:18;19.77;;;3.75;;
28772;SDS011;15925;51.222;5.678;2024-01-10T09:03:44;8.82;;;3.35;;
28772;SDS011;15925;51.222;5.678;2024-01-10T09:06:11;8.05;;;4.03;;
28772;SDS011;15925;51.222;5.678;2024-01-10T09:11:04;13.18;;;5.63;;
28772;SDS011;15925;51.222;5.678;2024-01-10T09:13:30;7.50;;;3.17;;
28772;SDS011;15925;51.222;5.678;2024-01-10T09:15:56;6.43;;;3.20;;
28772;SDS011;15925;51.222;5.678;2024-01-10T09:18:22;3.67;;;2.78;;
28772;SDS011;15925;51.222;5.678;2024-01-10T09:20:48;5.97;;;3.00;;
28772;SDS011;15925;51.222;5.678;2024-01-10T09:23:14;15.48;;;3.42;;
28772;SDS011;15925;51.222;5.678;2024-01-10T09:25:40;6.53;;;3.83;;
28772;SDS011;15925;51.222;5.678;2024-01-10T09:28:06;10.40;;;4.25;;
28772;SDS011;15925;51.222;5.678;2024-01-10T09:30:32;9.90;;;3.08;;
28772;SDS011;15925;51.222;5.678;2024-01-10T09:32:59;7.93;;;2.58;;
28772;SDS011;15925;51.222;5.678;2024-01-10T09:35:25;14.98;;;3.83;;
28772;SDS011;15925;51.222;5.678;2024-01-10T09:37:51;8.60;;;3.83;;
28772;SDS011;15925;51.222;5.678;2024-01-10T09:40:18;12.88;;;4.10;;
28772;SDS011;15925;51.222;5.678;2024-01-10T09:42:47;15.07;;;3.20;;
28772;SDS011;15925;51.222;5.678;2024-01-10T09:45:16;26.02;;;3.40;;
28772;SDS011;15925;51.222;5.678;2024-01-10T09:47:44;13.88;;;3.33;;
28772;SDS011;15925;51.222;5.678;2024-01-10T09:50:13;12.50;;;5.45;;
28772;SDS011;15925;51.222;5.678;2024-01-10T09:55:46;20.63;;;3.95;;
28772;SDS011;15925;51.222;5.678;2024-01-10T09:58:12;8.43;;;4.40;;
28772;SDS011;15925;51.222;5.678;2024-01-10T10:00:38;3.85;;;2.42;;
28772;SDS011;15925;51.222;5.678;2024-01-10T10:03:07;7.55;;;3.85;;
28772;SDS011;15925;51.222;5.678;2024-01-10T10:05:35;9.80;;;3.55;;
28772;SDS011;15925;51.222;5.678;2024-01-10T10:08:02;11.32;;;3.30;;
28772;SDS011;15925;51.222;5.678;2024-01-10T10:10:31;7.90;;;3.22;;
28772;SDS011;15925;51.222;5.678;2024-01-10T10:12:57;5.47;;;3.03;;
28772;SDS011;15925;51.222;5.678;2024-01-10T10:15:23;8.73;;;3.53;;
28772;SDS011;15925;51.222;5.678;2024-01-10T10:17:53;6.15;;;3.33;;
28772;SDS011;15925;51.222;5.678;2024-01-10T10:25:35;6.32;;;3.83;;
28772;SDS011;15925;51.222;5.678;2024-01-10T10:28:03;11.68;;;3.92;;
28772;SDS011;15925;51.222;5.678;2024-01-10T10:30:30;8.48;;;2.83;;
28772;SDS011;15925;51.222;5.678;2024-01-10T10:32:57;16.65;;;3.83;;
28772;SDS011;15925;51.222;5.678;2024-01-10T10:35:23;17.60;;;4.20;;
28772;SDS011;15925;51.222;5.678;2024-01-10T10:37:50;15.38;;;3.88;;
28772;SDS011;15925;51.222;5.678;2024-01-10T10:40:16;6.78;;;3.15;;
28772;SDS011;15925;51.222;5.678;2024-01-10T10:42:44;7.82;;;3.78;;
28772;SDS011;15925;51.222;5.678;2024-01-10T10:45:20;13.75;;;4.78;;
28772;SDS011;15925;51.222;5.678;2024-01-10T10:47:53;9.25;;;3.95;;
28772;SDS011;15925;51.222;5.678;2024-01-10T10:50:26;11.50;;;3.00;;
28772;SDS011;15925;51.222;5.678;2024-01-10T10:52:54;11.90;;;3.97;;
28772;SDS011;15925;51.222;5.678;2024-01-10T10:55:23;9.35;;;3.50;;
28772;SDS011;15925;51.222;5.678;2024-01-10T10:57:51;8.63;;;3.25;;
28772;SDS011;15925;51.222;5.678;2024-01-10T11:00:20;7.97;;;3.15;;
28772;SDS011;15925;51.222;5.678;2024-01-10T11:02:55;13.18;;;3.97;;
28772;SDS011;15925;51.222;5.678;2024-01-10T11:05:22;25.60;;;5.45;;
28772;SDS011;15925;51.222;5.678;2024-01-10T11:07:49;13.20;;;3.97;;
28772;SDS011;15925;51.222;5.678;2024-01-10T11:10:18;14.93;;;4.03;;
28772;SDS011;15925;51.222;5.678;2024-01-10T11:23:58;7.97;;;4.50;;
28772;SDS011;15925;51.222;5.678;2024-01-10T11:26:25;14.93;;;3.85;;
28772;SDS011;15925;51.222;5.678;2024-01-10T11:28:51;13.10;;;4.07;;
28772;SDS011;15925;51.222;5.678;2024-01-10T11:31:26;9.07;;;3.13;;
28772;SDS011;15925;51.222;5.678;2024-01-10T11:33:56;11.27;;;3.10;;
28772;SDS011;15925;51.222;5.678;2024-01-10T11:36:23;7.90;;;3.30;;
28772;SDS011;15925;51.222;5.678;2024-01-10T11:46:35;8.77;;;4.60;;
28772;SDS011;15925;51.222;5.678;2024-01-10T11:49:03;13.48;;;4.45;;
28772;SDS011;15925;51.222;5.678;2024-01-10T11:51:31;10.23;;;3.63;;
28772;SDS011;15925;51.222;5.678;2024-01-10T11:53:57;13.13;;;3.90;;
28772;SDS011;15925;51.222;5.678;2024-01-10T11:56:24;9.77;;;4.43;;
28772;SDS011;15925;51.222;5.678;2024-01-10T11:59:07;12.65;;;4.72;;
28772;SDS011;15925;51.222;5.678;2024-01-10T12:01:36;12.25;;;5.15;;
28772;SDS011;15925;51.222;5.678;2024-01-10T12:04:03;20.88;;;5.05;;
28772;SDS011;15925;51.222;5.678;2024-01-10T12:06:29;9.85;;;4.85;;
28772;SDS011;15925;51.222;5.678;2024-01-10T12:09:02;12.02;;;4.43;;
28772;SDS011;15925;51.222;5.678;2024-01-10T12:11:43;10.88;;;4.88;;
28772;SDS011;15925;51.222;5.678;2024-01-10T12:14:09;18.38;;;4.60;;
28772;SDS011;15925;51.222;5.678;2024-01-10T12:16:35;18.35;;;4.57;;
28772;SDS011;15925;51.222;5.678;2024-01-10T12:19:01;16.02;;;4.88;;
28772;SDS011;15925;51.222;5.678;2024-01-10T12:21:27;13.75;;;5.50;;
28772;SDS011;15925;51.222;5.678;2024-01-10T12:23:53;12.33;;;3.87;;
28772;SDS011;15925;51.222;5.678;2024-01-10T12:26:19;11.03;;;4.10;;
28772;SDS011;15925;51.222;5.678;2024-01-10T12:28:54;10.07;;;4.22;;
28772;SDS011;15925;51.222;5.678;2024-01-10T12:31:20;14.10;;;5.20;;
28772;SDS011;15925;51.222;5.678;2024-01-10T12:33:48;8.63;;;3.80;;
28772;SDS011;15925;51.222;5.678;2024-01-10T12:38:41;12.82;;;3.25;;
28772;SDS011;15925;51.222;5.678;2024-01-10T12:41:08;5.93;;;4.28;;
28772;SDS011;15925;51.222;5.678;2024-01-10T12:43:34;9.63;;;5.45;;
28772;SDS011;15925;51.222;5.678;2024-01-10T12:46:04;19.38;;;4.78;;
28772;SDS011;15925;51.222;5.678;2024-01-10T12:48:30;13.13;;;4.68;;
28772;SDS011;15925;51.222;5.678;2024-01-10T12:50:58;15.00;;;5.88;;
28772;SDS011;15925;51.222;5.678;2024-01-10T12:53:34;8.45;;;3.53;;
28772;SDS011;15925;51.222;5.678;2024-01-10T12:56:05;8.85;;;4.32;;
28772;SDS011;15925;51.222;5.678;2024-01-10T12:58:32;9.68;;;3.28;;
28772;SDS011;15925;51.222;5.678;2024-01-10T13:01:00;7.15;;;4.35;;
28772;SDS011;15925;51.222;5.678;2024-01-10T13:03:26;11.98;;;3.88;;
28772;SDS011;15925;51.222;5.678;2024-01-10T13:05:52;13.40;;;3.97;;
28772;SDS011;15925;51.222;5.678;2024-01-10T13:08:18;13.27;;;5.80;;
28772;SDS011;15925;51.222;5.678;2024-01-10T13:10:47;10.43;;;3.58;;
28772;SDS011;15925;51.222;5.678;2024-01-10T13:13:14;9.57;;;3.85;;
28772;SDS011;15925;51.222;5.678;2024-01-10T13:15:40;17.50;;;4.70;;
28772;SDS011;15925;51.222;5.678;2024-01-10T13:18:07;19.42;;;4.85;;
28772;SDS011;15925;51.222;5.678;2024-01-10T13:20:35;12.65;;;5.07;;
28772;SDS011;15925;51.222;5.678;2024-01-10T13:25:27;19.52;;;4.18;;
28772;SDS011;15925;51.222;5.678;2024-01-10T13:27:53;10.82;;;3.72;;
28772;SDS011;15925;51.222;5.678;2024-01-10T13:30:19;8.55;;;3.25;;
28772;SDS011;15925;51.222;5.678;2024-01-10T13:32:45;15.25;;;5.38;;
28772;SDS011;15925;51.222;5.678;2024-01-10T13:35:13;11.85;;;4.80;;
28772;SDS011;15925;51.222;5.678;2024-01-10T13:37:40;8.85;;;4.20;;
28772;SDS011;15925;51.222;5.678;2024-01-10T13:40:14;12.13;;;4.03;;
28772;SDS011;15925;51.222;5.678;2024-01-10T13:42:41;19.33;;;4.45;;
28772;SDS011;15925;51.222;5.678;2024-01-10T13:45:10;8.68;;;5.18;;
28772;SDS011;15925;51.222;5.678;2024-01-10T13:47:37;18.00;;;4.20;;
28772;SDS011;15925;51.222;5.678;2024-01-10T13:50:07;8.65;;;4.40;;
28772;SDS011;15925;51.222;5.678;2024-01-10T13:52:37;9.27;;;4.50;;
28772;SDS011;15925;51.222;5.678;2024-01-10T13:55:03;33.92;;;4.65;;
28772;SDS011;15925;51.222;5.678;2024-01-10T13:57:32;19.25;;;6.15;;
28772;SDS011;15925;51.222;5.678;2024-01-10T13:59:58;14.50;;;4.90;;
28772;SDS011;15925;51.222;5.678;2024-01-10T14:02:25;10.63;;;5.47;;
28772;SDS011;15925;51.222;5.678;2024-01-10T14:04:51;17.92;;;4.80;;
28772;SDS011;15925;51.222;5.678;2024-01-10T14:07:19;11.20;;;4.20;;
28772;SDS011;15925;51.222;5.678;2024-01-10T14:09:45;18.13;;;5.10;;
28772;SDS011;15925;51.222;5.678;2024-01-10T14:12:11;5.20;;;3.75;;
28772;SDS011;15925;51.222;5.678;2024-01-10T14:14:38;15.50;;;4.32;;
28772;SDS011;15925;51.222;5.678;2024-01-10T14:17:04;13.00;;;4.20;;
28772;SDS011;15925;51.222;5.678;2024-01-10T14:19:30;14.23;;;6.43;;
28772;SDS011;15925;51.222;5.678;2024-01-10T14:21:57;11.23;;;5.07;;
28772;SDS011;15925;51.222;5.678;2024-01-10T14:24:23;14.02;;;5.18;;
28772;SDS011;15925;51.222;5.678;2024-01-10T14:26:49;11.13;;;4.40;;
28772;SDS011;15925;51.222;5.678;2024-01-10T14:29:15;19.55;;;5.28;;
28772;SDS011;15925;51.222;5.678;2024-01-10T14:31:41;10.45;;;3.88;;
28772;SDS011;15925;51.222;5.678;2024-01-10T14:34:07;13.60;;;5.03;;
28772;SDS011;15925;51.222;5.678;2024-01-10T14:36:34;13.75;;;3.92;;
28772;SDS011;15925;51.222;5.678;2024-01-10T14:39:02;6.35;;;3.95;;
28772;SDS011;15925;51.222;5.678;2024-01-10T14:41:29;21.23;;;4.88;;
28772;SDS011;15925;51.222;5.678;2024-01-10T14:43:55;16.63;;;4.82;;
28772;SDS011;15925;51.222;5.678;2024-01-10T14:46:22;14.88;;;5.40;;
28772;SDS011;15925;51.222;5.678;2024-01-10T14:48:47;16.13;;;4.80;;
28772;SDS011;15925;51.222;5.678;2024-01-10T14:51:14;10.25;;;4.25;;
28772;SDS011;15925;51.222;5.678;2024-01-10T14:53:39;11.30;;;3.67;;
28772;SDS011;15925;51.222;5.678;2024-01-10T14:56:05;10.88;;;4.47;;
28772;SDS011;15925;51.222;5.678;2024-01-10T14:58:31;16.63;;;4.53;;
28772;SDS011;15925;51.222;5.678;2024-01-10T15:00:58;11.35;;;3.60;;
28772;SDS011;15925;51.222;5.678;2024-01-10T15:03:24;22.40;;;4.88;;
28772;SDS011;15925;51.222;5.678;2024-01-10T15:05:51;14.38;;;5.82;;
28772;SDS011;15925;51.222;5.678;2024-01-10T15:08:18;7.00;;;3.28;;
28772;SDS011;15925;51.222;5.678;2024-01-10T15:10:44;14.82;;;5.70;;
28772;SDS011;15925;51.222;5.678;2024-01-10T15:13:10;16.60;;;5.47;;
28772;SDS011;15925;51.222;5.678;2024-01-10T15:15:40;14.85;;;4.72;;
28772;SDS011;15925;51.222;5.678;2024-01-10T15:18:07;9.93;;;4.68;;
28772;SDS011;15925;51.222;5.678;2024-01-10T15:20:33;14.60;;;3.95;;
28772;SDS011;15925;51.222;5.678;2024-01-10T15:22:59;12.20;;;4.38;;
28772;SDS011;15925;51.222;5.678;2024-01-10T15:25:24;6.97;;;4.25;;